createdAt,value
2018-04-24T00:02:17.806Z,19.20
2018-04-24T00:04:45.322Z,19.10
2018-04-24T00:07:12.778Z,18.60
2018-04-24T00:09:40.238Z,18.70
2018-04-24T00:12:07.693Z,18.50
2018-04-24T00:14:35.117Z,18.70
2018-04-24T00:17:02.596Z,18.70
2018-04-24T00:19:30.059Z,18.90
2018-04-24T00:21:57.517Z,19.00
2018-04-24T00:24:24.977Z,19.20
2018-04-24T00:26:52.417Z,19.50
2018-04-24T00:29:19.873Z,19.80
2018-04-24T00:31:47.286Z,19.90
2018-04-24T00:34:14.760Z,19.90
2018-04-24T00:36:43.215Z,19.60
2018-04-24T00:39:12.188Z,20.30
2018-04-24T00:41:39.608Z,20.30
2018-04-24T00:44:07.021Z,20.40
2018-04-24T00:46:34.531Z,21.00
2018-04-24T00:49:01.963Z,21.50
2018-04-24T00:51:29.373Z,22.00
2018-04-24T00:53:56.897Z,22.40
2018-04-24T00:56:24.366Z,22.60
2018-04-24T00:58:52.016Z,22.70
2018-04-24T01:01:19.584Z,22.80
2018-04-24T01:03:47.021Z,22.80
2018-04-24T01:06:14.494Z,23.00
2018-04-24T01:08:41.934Z,23.00
2018-04-24T01:11:09.376Z,23.40
2018-04-24T01:13:36.856Z,23.40
2018-04-24T01:16:04.322Z,23.40
2018-04-24T01:18:31.754Z,23.60
2018-04-24T01:20:59.180Z,24.10
2018-04-24T01:23:26.693Z,24.30
2018-04-24T01:25:54.118Z,24.30
2018-04-24T01:28:21.549Z,24.50
2018-04-24T01:30:49.050Z,24.50
2018-04-24T01:33:16.485Z,24.80
2018-04-24T01:35:44.155Z,24.80
2018-04-24T01:38:12.530Z,25.20
2018-04-24T01:40:40.014Z,25.00
2018-04-24T01:43:07.451Z,24.80
2018-04-24T01:45:34.865Z,25.20
2018-04-24T01:48:03.069Z,26.40
2018-04-24T01:50:30.486Z,26.40
2018-04-24T01:52:57.994Z,26.70
2018-04-24T01:55:25.424Z,26.90
2018-04-24T01:57:52.839Z,27.00
2018-04-24T02:00:20.412Z,27.40
2018-04-24T02:02:49.353Z,27.80
2018-04-24T02:05:16.787Z,27.70
2018-04-24T02:07:44.299Z,28.20
2018-04-24T02:10:11.810Z,28.60
2018-04-24T02:12:39.237Z,28.90
2018-04-24T02:15:06.769Z,29.00
2018-04-24T02:17:34.206Z,28.90
2018-04-24T02:20:01.636Z,29.60
2018-04-24T02:22:29.214Z,30.00
2018-04-24T02:24:56.679Z,30.00
2018-04-24T02:27:24.101Z,30.00
2018-04-24T02:29:51.697Z,30.00
2018-04-24T02:32:19.128Z,30.50
2018-04-24T02:34:46.558Z,30.40
2018-04-24T02:37:13.995Z,30.80
2018-04-24T02:39:41.410Z,31.40
2018-04-24T02:42:08.851Z,31.20
2018-04-24T02:44:36.327Z,30.40
2018-04-24T02:47:03.754Z,30.70
2018-04-24T02:49:31.330Z,30.00
2018-04-24T02:51:58.757Z,30.00
2018-04-24T02:54:26.190Z,29.90
2018-04-24T02:56:53.607Z,30.00
2018-04-24T02:59:21.037Z,31.50
2018-04-24T03:01:48.462Z,32.30
2018-04-24T03:04:16.659Z,32.10
2018-04-24T03:06:44.091Z,31.80
2018-04-24T03:09:12.418Z,32.80
2018-04-24T03:11:39.894Z,33.30
2018-04-24T03:14:07.430Z,33.00
2018-04-24T03:16:34.858Z,34.10
2018-04-24T03:19:02.354Z,34.00
2018-04-24T03:21:29.782Z,33.30
2018-04-24T03:23:57.214Z,32.90
2018-04-24T03:26:24.718Z,33.70
2018-04-24T03:28:53.097Z,32.90
2018-04-24T03:31:20.549Z,32.90
2018-04-24T03:33:48.185Z,32.90
2018-04-24T03:36:15.619Z,33.50
2018-04-24T03:38:43.462Z,33.40
2018-04-24T03:41:10.926Z,33.10
2018-04-24T03:43:39.264Z,33.90
2018-04-24T03:46:06.709Z,33.90
2018-04-24T03:48:34.278Z,35.60
2018-04-24T03:51:01.742Z,33.80
2018-04-24T03:53:29.183Z,34.80
2018-04-24T03:55:56.654Z,35.50
2018-04-24T03:58:24.078Z,36.30
2018-04-24T04:00:51.562Z,35.80
2018-04-24T04:03:18.982Z,36.40
2018-04-24T04:05:46.426Z,36.70
2018-04-24T04:08:13.849Z,36.20
2018-04-24T04:10:41.285Z,35.80
2018-04-24T04:13:08.757Z,36.60
2018-04-24T04:15:36.308Z,34.90
2018-04-24T04:18:15.470Z,34.00
2018-04-24T04:20:54.762Z,33.70
2018-04-24T04:23:34.920Z,34.20
2018-04-24T04:26:02.342Z,35.50
2018-04-24T04:28:29.770Z,34.50
2018-04-24T04:30:57.189Z,34.60
2018-04-24T04:33:24.641Z,35.70
2018-04-24T04:35:52.118Z,36.60
2018-04-24T04:38:19.593Z,36.70
2018-04-24T04:40:47.121Z,36.20
2018-04-24T04:43:14.747Z,36.70
2018-04-24T04:45:42.198Z,36.50
2018-04-24T04:48:09.693Z,36.60
2018-04-24T04:50:37.137Z,35.60
2018-04-24T04:53:04.582Z,39.20
2018-04-24T04:55:32.073Z,38.20
2018-04-24T04:57:59.931Z,41.00
2018-04-24T05:00:27.577Z,40.30
2018-04-24T05:02:55.159Z,40.20
2018-04-24T05:05:22.707Z,41.20
2018-04-24T05:07:50.358Z,42.60
2018-04-24T05:10:17.813Z,43.60
2018-04-24T05:12:45.269Z,43.20
2018-04-24T05:15:13.034Z,44.80
2018-04-24T05:17:40.797Z,43.90
2018-04-24T05:20:08.502Z,44.10
2018-04-24T05:22:36.017Z,43.60
2018-04-24T05:25:03.433Z,42.80
2018-04-24T05:27:30.951Z,42.90
2018-04-24T05:29:58.562Z,42.40
2018-04-24T05:32:26.022Z,43.00
2018-04-24T05:34:53.602Z,42.10
2018-04-24T05:37:21.063Z,43.00
2018-04-24T05:39:48.640Z,42.70
2018-04-24T05:42:16.146Z,43.70
2018-04-24T05:44:43.633Z,44.00
2018-04-24T05:47:11.097Z,43.80
2018-04-24T05:49:38.650Z,42.70
2018-04-24T05:52:06.125Z,42.80
2018-04-24T05:54:33.537Z,41.00
2018-04-24T05:57:01.021Z,41.70
2018-04-24T05:59:28.646Z,42.70
2018-04-24T06:01:56.850Z,43.30
2018-04-24T06:04:24.310Z,43.20
2018-04-24T06:06:51.973Z,42.20
2018-04-24T06:09:19.461Z,43.00
2018-04-24T06:11:47.121Z,42.30
2018-04-24T06:14:14.539Z,41.80
2018-04-24T06:16:42.203Z,39.90
2018-04-24T06:19:09.643Z,39.70
2018-04-24T06:21:37.070Z,38.80
2018-04-24T06:24:04.599Z,41.50
2018-04-24T06:26:32.333Z,39.80
2018-04-24T06:28:59.766Z,39.40
2018-04-24T06:31:27.186Z,39.80
2018-04-24T06:33:54.642Z,40.80
2018-04-24T06:36:22.070Z,39.50
2018-04-24T06:38:49.609Z,39.50
2018-04-24T06:41:17.025Z,39.50
2018-04-24T06:43:44.466Z,39.50
2018-04-24T06:46:11.980Z,40.20
2018-04-24T06:48:39.433Z,39.80
2018-04-24T06:51:06.863Z,38.00
2018-04-24T06:53:34.289Z,38.20
2018-04-24T06:56:01.820Z,37.50
2018-04-24T06:58:29.601Z,37.80
2018-04-24T07:00:57.047Z,38.10
2018-04-24T07:03:24.448Z,37.60
2018-04-24T07:05:51.951Z,36.60
2018-04-24T07:08:19.397Z,37.70
2018-04-24T07:10:46.851Z,37.20
2018-04-24T07:13:14.256Z,35.90
2018-04-24T07:15:41.685Z,34.70
2018-04-24T07:18:09.128Z,35.50
2018-04-24T07:20:36.558Z,34.40
2018-04-24T07:23:04.140Z,33.50
2018-04-24T07:25:31.574Z,34.10
2018-04-24T07:27:59.050Z,35.30
2018-04-24T07:30:26.517Z,33.00
2018-04-24T07:32:54.142Z,32.60
2018-04-24T07:35:22.513Z,31.90
2018-04-24T07:37:49.995Z,31.90
2018-04-24T07:40:17.418Z,30.20
2018-04-24T07:42:45.606Z,28.20
2018-04-24T07:45:13.032Z,28.10
2018-04-24T07:47:40.454Z,24.80
2018-04-24T07:50:07.996Z,24.90
2018-04-24T07:52:35.444Z,24.70
2018-04-24T07:55:02.911Z,23.50
2018-04-24T07:57:30.326Z,21.40
2018-04-24T07:59:57.838Z,20.30
2018-04-24T08:02:25.274Z,20.70
2018-04-24T08:04:52.690Z,18.30
2018-04-24T08:07:21.014Z,17.60
2018-04-24T08:09:48.494Z,17.50
2018-04-24T08:12:16.032Z,16.30
2018-04-24T08:14:43.657Z,15.10
2018-04-24T08:17:11.248Z,15.10
2018-04-24T08:19:38.661Z,15.50
2018-04-24T08:22:06.188Z,14.40
2018-04-24T08:24:33.587Z,13.80
2018-04-24T08:27:01.010Z,14.10
2018-04-24T08:29:28.421Z,14.40
2018-04-24T08:31:55.892Z,14.40
2018-04-24T08:34:23.445Z,13.30
2018-04-24T08:36:50.862Z,13.70
2018-04-24T08:39:18.346Z,13.90
2018-04-24T08:41:45.769Z,14.50
2018-04-24T08:44:14.396Z,13.00
2018-04-24T08:46:41.857Z,14.00
2018-04-24T08:49:09.310Z,14.20
2018-04-24T08:51:36.763Z,12.30
2018-04-24T08:54:04.186Z,12.80
2018-04-24T08:56:31.706Z,11.70
2018-04-24T08:58:59.137Z,11.10
2018-04-24T09:01:26.594Z,10.70
2018-04-24T09:03:54.086Z,10.70
2018-04-24T09:06:21.596Z,11.60
2018-04-24T09:08:49.052Z,11.80
2018-04-24T09:11:16.473Z,11.20
2018-04-24T09:13:43.899Z,10.50
2018-04-24T09:16:11.344Z,10.30
2018-04-24T09:18:38.885Z,10.50
2018-04-24T09:21:06.338Z,10.40
2018-04-24T09:23:33.773Z,12.70
2018-04-24T09:26:01.186Z,12.60
2018-04-24T09:28:28.701Z,12.60
2018-04-24T09:30:56.189Z,12.20
2018-04-24T09:33:25.232Z,12.80
2018-04-24T09:35:52.577Z,12.80
2018-04-24T09:38:20.007Z,12.50
2018-04-24T09:40:47.421Z,12.70
2018-04-24T09:43:14.987Z,12.00
2018-04-24T09:45:42.431Z,10.70
2018-04-24T09:48:09.869Z,10.70
2018-04-24T09:50:37.294Z,11.80
2018-04-24T09:53:04.802Z,11.10
2018-04-24T09:55:32.233Z,11.40
2018-04-24T09:57:59.731Z,10.80
2018-04-24T10:00:33.165Z,11.40
2018-04-24T10:03:01.385Z,10.70
2018-04-24T10:05:28.839Z,10.60
2018-04-24T10:07:56.249Z,10.60
2018-04-24T10:10:23.753Z,9.90
2018-04-24T10:12:51.187Z,9.80
2018-04-24T10:15:18.666Z,9.60
2018-04-24T10:17:46.123Z,10.60
2018-04-24T10:20:13.584Z,10.20
2018-04-24T10:22:41.033Z,9.10
2018-04-24T10:25:08.449Z,8.90
2018-04-24T10:27:35.945Z,9.20
2018-04-24T10:30:03.352Z,8.40
2018-04-24T10:32:30.781Z,8.80
2018-04-24T10:34:58.234Z,7.60
2018-04-24T10:37:25.854Z,6.80
2018-04-24T10:39:53.230Z,7.10
2018-04-24T10:42:20.681Z,6.20
2018-04-24T10:44:48.176Z,7.10
2018-04-24T10:47:15.517Z,7.20
2018-04-24T10:49:43.044Z,7.00
2018-04-24T10:52:10.468Z,6.50
2018-04-24T10:54:37.882Z,6.30
2018-04-24T10:57:05.299Z,5.80
2018-04-24T10:59:32.782Z,6.30
2018-04-24T11:02:00.350Z,5.30
2018-04-24T11:04:27.791Z,4.20
2018-04-24T11:06:55.196Z,4.10
2018-04-24T11:09:22.621Z,4.10
2018-04-24T11:11:50.076Z,5.30
2018-04-24T11:14:17.518Z,5.40
2018-04-24T11:16:45.087Z,3.90
2018-04-24T11:19:12.510Z,4.60
2018-04-24T11:21:39.933Z,5.00
2018-04-24T11:24:07.441Z,4.10
2018-04-24T11:26:34.894Z,3.90
2018-04-24T11:29:02.348Z,2.30
2018-04-24T11:31:29.809Z,2.20
2018-04-24T11:33:57.266Z,1.80
2018-04-24T11:36:24.693Z,1.00
2018-04-24T11:38:52.182Z,1.00
2018-04-24T11:41:19.712Z,1.00
2018-04-24T11:43:47.294Z,1.00
2018-04-24T11:46:15.455Z,1.20
2018-04-24T11:48:42.923Z,1.10
2018-04-24T11:51:10.379Z,1.30
2018-04-24T11:53:37.790Z,1.80
2018-04-24T11:56:05.294Z,1.80
2018-04-24T11:58:32.702Z,1.60
2018-04-24T12:01:00.126Z,1.80
2018-04-24T12:03:27.662Z,1.90
2018-04-24T12:05:55.114Z,1.00
2018-04-24T12:08:22.521Z,1.10
2018-04-24T12:10:49.938Z,1.40
2018-04-24T12:13:17.356Z,1.60
2018-04-24T12:15:44.987Z,1.00
2018-04-24T12:18:12.369Z,1.00
2018-04-24T12:20:39.836Z,1.90
2018-04-24T12:23:07.314Z,1.20
2018-04-24T12:25:34.762Z,1.00
2018-04-24T12:28:02.222Z,1.40
2018-04-24T12:30:29.692Z,1.70
2018-04-24T12:32:57.152Z,1.00
2018-04-24T12:35:24.622Z,1.00
2018-04-24T12:37:52.044Z,1.00
2018-04-24T12:40:19.464Z,1.00
2018-04-24T12:42:46.877Z,1.00
2018-04-24T12:45:14.326Z,1.00
2018-04-24T12:47:41.869Z,1.00
2018-04-24T12:50:09.282Z,1.00
2018-04-24T12:52:36.711Z,1.00
2018-04-24T12:55:04.119Z,1.00
2018-04-24T12:57:31.698Z,1.00
2018-04-24T12:59:59.178Z,1.00
2018-04-24T13:02:26.610Z,1.00
2018-04-24T13:04:54.057Z,1.00
2018-04-24T13:07:21.518Z,1.00
2018-04-24T13:09:49.025Z,1.00
2018-04-24T13:12:16.429Z,1.00
2018-04-24T13:14:43.857Z,1.00
2018-04-24T13:17:11.342Z,1.00
2018-04-24T13:19:38.778Z,1.00
2018-04-24T13:22:06.194Z,1.00
2018-04-24T13:24:33.726Z,1.00
2018-04-24T13:27:01.492Z,1.00
2018-04-24T13:29:28.932Z,1.00
2018-04-24T13:31:56.345Z,1.00
2018-04-24T13:34:23.770Z,1.00
2018-04-24T13:36:51.198Z,1.00
2018-04-24T13:39:18.615Z,1.00
2018-04-24T13:41:46.909Z,1.00
2018-04-24T13:44:14.488Z,1.00
2018-04-24T13:46:41.961Z,1.00
2018-04-24T13:49:09.414Z,1.00
2018-04-24T13:51:36.841Z,1.00
2018-04-24T13:54:04.321Z,1.00
2018-04-24T13:56:31.818Z,1.00
2018-04-24T13:58:59.240Z,1.00
2018-04-24T14:01:26.667Z,1.00
2018-04-24T14:03:54.246Z,1.00
2018-04-24T14:06:21.718Z,1.00
2018-04-24T14:08:49.085Z,1.00
2018-04-24T14:11:16.614Z,1.00
2018-04-24T14:13:44.030Z,1.00
2018-04-24T14:16:11.472Z,1.00
2018-04-24T14:18:38.883Z,1.00
2018-04-24T14:21:06.442Z,1.00
2018-04-24T14:23:33.870Z,1.00
2018-04-24T14:26:01.274Z,1.00
2018-04-24T14:28:28.709Z,1.00
2018-04-24T14:30:56.294Z,1.00
2018-04-24T14:33:23.869Z,1.00
2018-04-24T14:35:51.402Z,1.00
2018-04-24T14:38:18.845Z,1.00
2018-04-24T14:40:46.373Z,1.00
2018-04-24T14:43:13.796Z,1.00
2018-04-24T14:45:41.229Z,1.00
2018-04-24T14:48:08.768Z,1.00
2018-04-24T14:50:36.177Z,1.00
2018-04-24T14:53:03.613Z,1.00
2018-04-24T14:55:31.025Z,1.00
2018-04-24T14:57:58.609Z,1.00
2018-04-24T15:00:26.343Z,1.00
2018-04-24T15:02:53.753Z,1.00
2018-04-24T15:05:21.177Z,1.00
2018-04-24T15:07:48.591Z,1.00
2018-04-24T15:10:16.018Z,1.00
2018-04-24T15:12:43.627Z,1.00
2018-04-24T15:15:11.101Z,1.00
2018-04-24T15:17:38.710Z,1.00
2018-04-24T15:20:06.942Z,1.00
2018-04-24T15:22:34.541Z,1.00
2018-04-24T15:25:02.733Z,1.00
2018-04-24T15:27:30.203Z,1.00
2018-04-24T15:29:57.641Z,1.00
2018-04-24T15:32:25.058Z,1.00
2018-04-24T15:34:52.604Z,1.00
2018-04-24T15:37:19.966Z,1.00
2018-04-24T15:39:47.493Z,1.00
2018-04-24T15:42:14.929Z,1.00
2018-04-24T15:44:42.350Z,1.00
2018-04-24T15:47:09.965Z,1.00
2018-04-24T15:49:37.497Z,1.00
2018-04-24T15:52:04.989Z,1.00
2018-04-24T15:54:32.436Z,1.00
2018-04-24T15:56:59.985Z,1.00
2018-04-24T15:59:27.414Z,1.00
2018-04-24T16:01:54.842Z,1.00
2018-04-24T16:04:22.274Z,1.00
2018-04-24T16:06:49.775Z,1.00
2018-04-24T16:09:17.910Z,1.00
2018-04-24T16:11:45.654Z,1.00
2018-04-24T16:14:13.062Z,1.00
2018-04-24T16:16:40.540Z,1.00
2018-04-24T16:19:08.013Z,1.00
2018-04-24T16:21:35.431Z,1.00
2018-04-24T16:24:02.927Z,1.00
2018-04-24T16:26:30.358Z,1.00
2018-04-24T16:28:57.765Z,1.00
2018-04-24T16:31:25.186Z,1.00
2018-04-24T16:33:53.603Z,1.00
2018-04-24T16:36:21.045Z,1.00
2018-04-24T16:38:48.490Z,1.00
2018-04-24T16:41:15.912Z,1.00
2018-04-24T16:43:43.369Z,1.00
2018-04-24T16:46:10.885Z,1.00
2018-04-24T16:48:38.321Z,1.00
2018-04-24T16:51:05.856Z,1.00
2018-04-24T16:53:33.281Z,1.00
2018-04-24T16:56:00.778Z,1.00
2018-04-24T16:58:28.230Z,1.00
2018-04-24T17:00:55.675Z,1.00
2018-04-24T17:03:23.098Z,1.00
2018-04-24T17:05:50.510Z,1.00
2018-04-24T17:08:17.951Z,1.00
2018-04-24T17:10:45.363Z,1.00
2018-04-24T17:13:12.778Z,1.00
2018-04-24T17:15:40.312Z,1.00
2018-04-24T17:18:07.754Z,1.00
2018-04-24T17:20:35.197Z,1.00
2018-04-24T17:23:03.589Z,1.00
2018-04-24T17:25:31.151Z,1.00
2018-04-24T17:27:58.630Z,1.00
2018-04-24T17:30:26.052Z,1.00
2018-04-24T17:32:53.457Z,1.00
2018-04-24T17:35:20.879Z,1.00
2018-04-24T17:37:48.329Z,1.00
2018-04-24T17:40:15.766Z,1.00
2018-04-24T17:42:43.992Z,1.20
2018-04-24T17:45:11.468Z,1.10
2018-04-24T17:47:38.895Z,1.50
2018-04-24T17:50:06.323Z,1.70
2018-04-24T17:52:33.737Z,2.10
2018-04-24T17:55:01.263Z,2.40
2018-04-24T17:57:28.672Z,2.80
2018-04-24T17:59:56.186Z,3.10
2018-04-24T18:02:23.978Z,3.30
2018-04-24T18:04:52.892Z,3.70
2018-04-24T18:07:20.333Z,3.70
2018-04-24T18:09:47.754Z,3.70
2018-04-24T18:12:15.299Z,3.80
2018-04-24T18:14:42.714Z,4.00
2018-04-24T18:17:10.138Z,4.30
2018-04-24T18:19:37.573Z,4.30
2018-04-24T18:22:05.002Z,4.40
2018-04-24T18:24:33.187Z,4.50
2018-04-24T18:27:00.654Z,4.40
2018-04-24T18:29:28.074Z,4.60
2018-04-24T18:31:55.602Z,4.80
2018-04-24T18:34:23.338Z,4.90
2018-04-24T18:36:50.770Z,5.30
2018-04-24T18:39:19.034Z,5.30
2018-04-24T18:41:46.622Z,5.30
2018-04-24T18:44:14.056Z,5.70
2018-04-24T18:46:41.461Z,5.50
2018-04-24T18:49:08.890Z,5.70
2018-04-24T18:51:36.452Z,5.60
2018-04-24T18:54:04.074Z,5.30
2018-04-24T18:56:31.662Z,5.20
2018-04-24T18:58:59.090Z,5.30
2018-04-24T19:01:26.509Z,5.40
2018-04-24T19:03:53.934Z,5.50
2018-04-24T19:06:21.345Z,5.60
2018-04-24T19:08:49.543Z,6.10
2018-04-24T19:11:16.950Z,6.10
2018-04-24T19:13:44.368Z,5.90
2018-04-24T19:16:11.796Z,6.10
2018-04-24T19:18:44.777Z,6.40
2018-04-24T19:21:12.220Z,7.00
2018-04-24T19:23:40.468Z,8.20
2018-04-24T19:26:07.826Z,7.60
2018-04-24T19:28:35.251Z,7.80
2018-04-24T19:31:08.245Z,7.90
2018-04-24T19:33:35.673Z,7.80
2018-04-24T19:36:03.101Z,8.00
2018-04-24T19:38:31.277Z,8.00
2018-04-24T19:41:05.081Z,8.00
2018-04-24T19:43:32.466Z,8.00
2018-04-24T19:46:00.038Z,8.40
2018-04-24T19:48:33.137Z,8.30
2018-04-24T19:51:00.557Z,8.40
2018-04-24T19:53:27.969Z,8.70
2018-04-24T19:55:55.378Z,9.10
2018-04-24T19:58:22.818Z,9.40
2018-04-24T20:00:50.229Z,9.40
2018-04-24T20:03:17.641Z,9.50
2018-04-24T20:05:45.063Z,9.40
2018-04-24T20:08:12.499Z,9.70
2018-04-24T20:10:39.982Z,9.90
2018-04-24T20:13:07.362Z,10.00
2018-04-24T20:15:34.782Z,10.40
2018-04-24T20:18:02.201Z,11.10
2018-04-24T20:20:29.625Z,10.50
2018-04-24T20:22:57.042Z,10.50
2018-04-24T20:25:24.474Z,10.50
2018-04-24T20:27:51.899Z,10.50
2018-04-24T20:30:19.326Z,10.50
2018-04-24T20:32:46.743Z,10.40
2018-04-24T20:35:14.166Z,10.50
2018-04-24T20:37:41.592Z,10.50
2018-04-24T20:40:09.086Z,10.10
2018-04-24T20:42:36.512Z,10.20
2018-04-24T20:45:03.938Z,10.10
2018-04-24T20:47:32.312Z,10.50
2018-04-24T20:49:59.837Z,10.50
2018-04-24T20:52:27.249Z,10.40
2018-04-24T20:54:54.764Z,10.50
2018-04-24T20:57:22.189Z,10.60
2018-04-24T20:59:49.658Z,11.00
2018-04-24T21:02:17.074Z,10.90
2018-04-24T21:04:44.579Z,11.00
2018-04-24T21:07:13.577Z,11.30
2018-04-24T21:09:41.330Z,11.40
2018-04-24T21:12:08.770Z,11.50
2018-04-24T21:14:36.177Z,11.80
2018-04-24T21:17:03.698Z,12.00
2018-04-24T21:19:31.216Z,12.00
2018-04-24T21:21:58.608Z,12.30
2018-04-24T21:24:26.069Z,12.70
2018-04-24T21:26:53.486Z,12.90
2018-04-24T21:29:20.984Z,13.70
2018-04-24T21:31:48.442Z,14.90
2018-04-24T21:34:15.858Z,15.20
2018-04-24T21:36:43.291Z,15.10
2018-04-24T21:39:10.701Z,15.80
2018-04-24T21:41:38.160Z,15.40
2018-04-24T21:44:05.573Z,15.50
2018-04-24T21:46:33.763Z,15.40
2018-04-24T21:49:01.246Z,15.30
2018-04-24T21:51:28.723Z,15.30
2018-04-24T21:53:56.105Z,15.80
2018-04-24T21:56:23.624Z,15.60
2018-04-24T21:58:51.075Z,15.50
2018-04-24T22:01:18.523Z,16.10
2018-04-24T22:03:45.977Z,16.50
2018-04-24T22:06:13.438Z,16.90
2018-04-24T22:08:40.890Z,17.00
2018-04-24T22:11:08.366Z,17.00
2018-04-24T22:13:35.787Z,17.00
2018-04-24T22:16:03.202Z,17.00
2018-04-24T22:18:30.730Z,17.00
2018-04-24T22:20:58.152Z,17.00
2018-04-24T22:23:25.630Z,17.00
2018-04-24T22:25:53.087Z,17.60
2018-04-24T22:28:20.513Z,17.40
2018-04-24T22:30:47.926Z,17.70
2018-04-24T22:33:15.385Z,18.00
2018-04-24T22:35:42.910Z,17.60
2018-04-24T22:38:10.329Z,18.40
2018-04-24T22:40:37.829Z,18.10
2018-04-24T22:43:05.188Z,18.20
2018-04-24T22:45:32.734Z,18.20
2018-04-24T22:48:00.144Z,18.20
2018-04-24T22:50:27.648Z,18.20
2018-04-24T22:52:55.058Z,18.40
2018-04-24T22:55:22.486Z,18.20
2018-04-24T22:57:49.914Z,18.70
2018-04-24T23:00:17.483Z,18.70
2018-04-24T23:02:44.929Z,18.30
2018-04-24T23:05:12.353Z,18.40
2018-04-24T23:07:39.866Z,18.50
2018-04-24T23:10:06.990Z,18.80
2018-04-24T23:12:46.125Z,18.80
2018-04-24T23:15:25.561Z,19.10
2018-04-24T23:18:04.971Z,19.80
2018-04-24T23:20:32.145Z,19.60
2018-04-24T23:22:59.587Z,20.10
2018-04-24T23:25:27.063Z,19.70
2018-04-24T23:27:54.491Z,19.80
2018-04-24T23:30:21.929Z,20.00
2018-04-24T23:32:49.349Z,20.10
2018-04-24T23:35:16.887Z,20.00
2018-04-24T23:37:44.314Z,20.50
2018-04-24T23:40:11.729Z,20.70
2018-04-24T23:42:39.273Z,20.70
2018-04-24T23:45:06.689Z,21.40
2018-04-24T23:47:34.177Z,21.30
2018-04-24T23:50:01.586Z,21.40
2018-04-24T23:52:29.006Z,21.10
2018-04-24T23:54:56.735Z,21.70
2018-04-24T23:57:24.293Z,21.90
2018-04-24T23:59:51.705Z,21.90
